Time;durP1;ratioP1;P1;durP2;ratioP2;P2;SDS_P1;SDS_P2;PMS_P1;PMS_P2;Temp;Humidity;BMP_temperature;BMP_pressure;BME280_temperature;BME280_humidity;BME280_pressure;Samples;Min_cycle;Max_cycle;Signal;HPM_P1;HPM_P2
2023/07/28 00:00:07;;;;;;;8.65;3.00;;;;;;;15.58;100.00;92454.00;5059389;28;20025;-83
2023/07/28 00:02:35;;;;;;;7.45;3.20;;;;;;;15.56;100.00;92445.63;5070665;28;20520;-83
2023/07/28 00:05:01;;;;;;;8.05;3.30;;;;;;;15.54;100.00;92453.09;5077072;28;20122;-82
2023/07/28 00:07:26;;;;;;;6.80;3.08;;;;;;;15.52;100.00;92454.50;5071650;28;20036;-83
2023/07/28 00:09:52;;;;;;;7.25;3.13;;;;;;;15.48;100.00;92456.97;5074552;28;20044;-82
2023/07/28 00:12:18;;;;;;;8.15;3.38;;;;;;;15.48;100.00;92449.06;5075095;28;20433;-83
2023/07/28 00:14:43;;;;;;;6.40;2.90;;;;;;;15.50;100.00;92461.94;5075050;28;20035;-83
2023/07/28 00:17:09;;;;;;;5.93;3.10;;;;;;;15.51;100.00;92453.69;5075158;28;20482;-83
2023/07/28 00:19:34;;;;;;;6.22;2.92;;;;;;;15.55;100.00;92451.97;5046035;28;20106;-83
2023/07/28 00:22:00;;;;;;;7.55;2.95;;;;;;;15.53;100.00;92446.25;5077379;28;20041;-83
2023/07/28 00:24:25;;;;;;;7.07;3.20;;;;;;;15.52;100.00;92443.94;5073135;28;20028;-83
2023/07/28 00:26:51;;;;;;;6.22;2.78;;;;;;;15.51;100.00;92448.44;5053610;28;20036;-83
2023/07/28 00:29:17;;;;;;;5.60;2.97;;;;;;;15.49;100.00;92448.00;5068266;28;20073;-83
2023/07/28 00:31:42;;;;;;;11.00;3.13;;;;;;;15.49;100.00;92453.28;5050684;28;20130;-83
2023/07/28 00:34:08;;;;;;;7.03;2.88;;;;;;;15.49;100.00;92450.63;5058935;28;20035;-82
2023/07/28 00:36:33;;;;;;;6.30;2.80;;;;;;;15.45;100.00;92441.81;5058127;28;20096;-82
2023/07/28 00:38:59;;;;;;;9.05;3.03;;;;;;;15.48;100.00;92454.34;5061408;28;20088;-83
2023/07/28 00:41:25;;;;;;;9.88;2.97;;;;;;;15.48;100.00;92448.31;5058887;28;20043;-83
2023/07/28 00:43:50;;;;;;;7.32;2.78;;;;;;;15.49;100.00;92442.72;5035657;28;20503;-82
2023/07/28 00:46:16;;;;;;;5.88;3.15;;;;;;;15.50;100.00;92440.84;5037095;28;20044;-81
2023/07/28 00:48:43;;;;;;;7.10;3.10;;;;;;;15.54;100.00;92442.53;5051279;28;20094;-84
2023/07/28 00:51:09;;;;;;;6.80;3.20;;;;;;;15.52;100.00;92434.16;5041868;28;20270;-84
2023/07/28 00:53:35;;;;;;;5.72;2.97;;;;;;;15.51;100.00;92442.38;5037196;28;20025;-84
2023/07/28 00:56:01;;;;;;;7.30;3.10;;;;;;;15.51;100.00;92431.84;5036613;28;20041;-84
2023/07/28 00:58:27;;;;;;;6.53;2.88;;;;;;;15.49;100.00;92440.09;5023241;28;20037;-83
2023/07/28 01:00:53;;;;;;;6.95;3.03;;;;;;;15.49;100.00;92439.28;5008905;28;20048;-83
2023/07/28 01:03:20;;;;;;;5.90;3.10;;;;;;;15.49;100.00;92442.72;5025303;28;20033;-83
2023/07/28 01:06:01;;;;;;;5.95;2.90;;;;;;;15.46;100.00;92440.69;5032290;28;20500;-83
2023/07/28 01:08:29;;;;;;;8.85;3.00;;;;;;;15.47;100.00;92437.00;5019626;28;20033;-84
2023/07/28 01:10:55;;;;;;;5.97;2.80;;;;;;;15.43;100.00;92425.50;5020484;28;20021;-84
2023/07/28 01:13:20;;;;;;;7.03;3.08;;;;;;;15.44;100.00;92429.69;5030569;28;20052;-83
2023/07/28 01:15:46;;;;;;;6.95;3.00;;;;;;;15.43;100.00;92436.06;5033232;28;20039;-83
2023/07/28 01:18:12;;;;;;;5.95;3.20;;;;;;;15.40;100.00;92441.97;5019394;28;20038;-83
2023/07/28 01:20:39;;;;;;;5.63;3.08;;;;;;;15.39;100.00;92440.41;5038647;28;20032;-82
2023/07/28 01:23:09;;;;;;;6.53;3.10;;;;;;;15.39;100.00;92441.19;5045825;28;20041;-83
2023/07/28 01:25:49;;;;;;;8.07;3.17;;;;;;;15.42;100.00;92434.50;5029210;28;20037;-83
2023/07/28 01:28:17;;;;;;;7.15;2.83;;;;;;;15.41;100.00;92432.97;5037585;28;20379;-82
2023/07/28 01:30:42;;;;;;;7.88;3.10;;;;;;;15.39;100.00;92440.41;5040373;28;20048;-82
2023/07/28 01:33:08;;;;;;;6.13;2.80;;;;;;;15.33;100.00;92442.47;5028596;28;20037;-84
2023/07/28 01:35:37;;;;;;;9.02;3.05;;;;;;;15.31;100.00;92449.13;5034127;28;20040;-82
2023/07/28 01:38:02;;;;;;;6.38;3.28;;;;;;;15.24;100.00;92443.56;5017640;28;20438;-82
2023/07/28 01:40:28;;;;;;;5.75;2.90;;;;;;;15.31;100.00;92449.13;5046860;28;20091;-83
2023/07/28 01:42:54;;;;;;;7.75;2.83;;;;;;;15.29;100.00;92446.03;5039796;28;20040;-83
2023/07/28 01:45:19;;;;;;;5.88;2.97;;;;;;;15.27;100.00;92442.97;5038572;28;20507;-82
2023/07/28 01:47:45;;;;;;;9.23;2.75;;;;;;;15.22;100.00;92449.19;5035526;28;20044;-83
2023/07/28 01:50:10;;;;;;;9.30;3.65;;;;;;;15.20;100.00;92454.75;5029907;28;20500;-83
2023/07/28 01:52:36;;;;;;;6.03;3.10;;;;;;;15.20;100.00;92460.03;5037935;28;20047;-82
2023/07/28 01:55:02;;;;;;;5.43;2.80;;;;;;;15.20;100.00;92452.13;5019839;28;20044;-84
2023/07/28 01:57:33;;;;;;;5.72;2.90;;;;;;;15.17;100.00;92444.81;5038015;28;20067;-83
2023/07/28 01:59:58;;;;;;;8.00;3.17;;;;;;;15.14;100.00;92445.47;5023642;28;20025;-83
2023/07/28 02:02:24;;;;;;;8.95;2.90;;;;;;;15.08;100.00;92449.34;5018619;28;20398;-83
2023/07/28 02:04:50;;;;;;;6.35;2.80;;;;;;;15.03;100.00;92446.13;5036891;28;20029;-83
2023/07/28 02:07:15;;;;;;;6.45;3.10;;;;;;;14.98;100.00;92452.34;5045215;28;20037;-83
2023/07/28 02:09:41;;;;;;;7.38;3.15;;;;;;;14.98;100.00;92444.44;5037206;28;20041;-82
2023/07/28 02:12:06;;;;;;;8.73;3.03;;;;;;;15.01;100.00;92448.28;5035711;28;20487;-82
2023/07/28 02:14:32;;;;;;;5.90;3.10;;;;;;;14.97;100.00;92446.31;5034291;28;20045;-83
2023/07/28 02:16:57;;;;;;;6.03;3.10;;;;;;;14.95;100.00;92443.19;5040552;28;20487;-83
2023/07/28 02:19:24;;;;;;;5.72;3.20;;;;;;;14.99;100.00;92438.06;5032932;28;20507;-82
2023/07/28 02:21:50;;;;;;;6.40;2.72;;;;;;;14.99;100.00;92440.69;5043395;28;20037;-81
2023/07/28 02:24:15;;;;;;;6.22;2.95;;;;;;;14.99;100.00;92432.78;5051609;28;20045;-82
2023/07/28 02:26:41;;;;;;;9.10;2.88;;;;;;;14.92;100.00;92435.13;5039794;28;20045;-82
2023/07/28 02:29:07;;;;;;;8.35;3.00;;;;;;;14.90;100.00;92434.66;5035372;28;20025;-82
2023/07/28 02:31:32;;;;;;;9.38;3.33;;;;;;;14.85;100.00;92430.34;5053989;28;20043;-82
2023/07/28 02:33:58;;;;;;;7.00;2.75;;;;;;;14.78;100.00;92428.19;5037767;28;20088;-82
2023/07/28 02:36:24;;;;;;;8.65;2.92;;;;;;;14.79;100.00;92426.31;5037711;28;20029;-82
2023/07/28 02:38:49;;;;;;;6.68;2.95;;;;;;;14.75;100.00;92426.19;5018031;28;20029;-83
2023/07/28 02:41:15;;;;;;;6.85;3.00;;;;;;;14.75;100.00;92420.91;5029770;28;20040;-83
2023/07/28 02:43:40;;;;;;;6.97;3.03;;;;;;;14.75;100.00;92423.53;5039284;28;20488;-84
2023/07/28 02:46:06;;;;;;;7.47;3.15;;;;;;;14.74;100.00;92419.34;5047702;28;20154;-83
2023/07/28 02:48:32;;;;;;;5.57;3.08;;;;;;;14.75;100.00;92410.38;5056088;28;20478;-83
2023/07/28 02:50:58;;;;;;;7.88;2.80;;;;;;;14.75;100.00;92402.47;5056403;28;20068;-83
2023/07/28 02:53:24;;;;;;;7.80;3.00;;;;;;;14.73;100.00;92396.75;5055409;28;20038;-83
2023/07/28 02:55:49;;;;;;;7.78;3.00;;;;;;;14.74;100.00;92397.50;5068151;28;20052;-82
2023/07/28 02:58:15;;;;;;;6.15;3.17;;;;;;;14.76;100.00;92397.97;5063528;28;20032;-82
2023/07/28 03:00:42;;;;;;;5.30;3.00;;;;;;;14.75;100.00;92391.94;5039028;28;20082;-83
2023/07/28 03:03:10;;;;;;;6.85;2.95;;;;;;;14.82;100.00;92393.31;5058147;28;20071;-83
2023/07/28 03:05:37;;;;;;;6.38;2.92;;;;;;;14.77;100.00;92389.75;5042097;28;20119;-83
2023/07/28 03:08:32;;;;;;;5.55;2.75;;;;;;;14.75;100.00;92376.13;5056462;28;20051;-82
2023/07/28 03:11:16;;;;;;;5.65;2.75;;;;;;;14.77;100.00;92373.16;5059828;28;20509;-83
2023/07/28 03:13:41;;;;;;;6.25;2.75;;;;;;;14.77;100.00;92379.22;5059550;28;20070;-82
2023/07/28 03:16:07;;;;;;;7.07;3.38;;;;;;;14.76;100.00;92377.66;5055062;28;20482;-82
2023/07/28 03:18:32;;;;;;;5.90;3.00;;;;;;;14.69;100.00;92380.00;5042357;28;20552;-82
2023/07/28 03:20:58;;;;;;;6.72;2.83;;;;;;;14.75;100.00;92386.66;5062113;28;20064;-83
2023/07/28 03:23:24;;;;;;;6.85;3.00;;;;;;;14.83;100.00;92386.94;5065870;28;20071;-82
2023/07/28 03:25:49;;;;;;;7.45;3.08;;;;;;;14.80;100.00;92377.03;5047132;28;20088;-82
2023/07/28 03:28:15;;;;;;;8.82;3.40;;;;;;;14.78;100.00;92375.47;5052900;28;20037;-82
2023/07/28 03:30:40;;;;;;;9.50;3.25;;;;;;;14.82;100.00;92374.88;5067793;28;20036;-83
2023/07/28 03:33:07;;;;;;;8.38;3.00;;;;;;;14.78;100.00;92375.47;5040881;28;20526;-83
2023/07/28 03:35:33;;;;;;;6.60;3.00;;;;;;;14.78;100.00;92387.88;5077043;28;20127;-83
2023/07/28 03:38:05;;;;;;;6.65;3.13;;;;;;;14.76;100.00;92388.19;5060857;28;20414;-83
2023/07/28 03:40:30;;;;;;;5.93;3.10;;;;;;;14.74;100.00;92379.81;5048123;28;20029;-83
2023/07/28 03:42:57;;;;;;;9.02;2.70;;;;;;;14.75;100.00;92376.13;5043939;28;20349;-82
2023/07/28 03:45:22;;;;;;;6.40;3.15;;;;;;;14.76;100.00;92380.28;5029021;28;20060;-83
2023/07/28 03:47:48;;;;;;;5.90;2.80;;;;;;;14.73;100.00;92380.16;5041547;28;20574;-82
2023/07/28 03:50:14;;;;;;;6.20;3.00;;;;;;;14.68;100.00;92364.50;5044814;28;20043;-82
2023/07/28 03:52:39;;;;;;;6.68;2.90;;;;;;;14.75;100.00;92367.44;5040479;28;20040;-83
2023/07/28 03:55:05;;;;;;;8.00;2.90;;;;;;;14.75;100.00;92368.22;5040608;28;20032;-82
2023/07/28 03:57:31;;;;;;;6.22;3.00;;;;;;;14.74;100.00;92364.03;5058903;28;20028;-83
2023/07/28 03:59:56;;;;;;;5.47;2.78;;;;;;;14.71;100.00;92362.03;5065871;28;20032;-83
2023/07/28 04:02:22;;;;;;;6.93;2.90;;;;;;;14.72;100.00;92358.28;5042918;28;20041;-83
2023/07/28 04:04:54;;;;;;;5.32;2.80;;;;;;;14.73;100.00;92361.72;5060750;28;20062;-81
2023/07/28 04:07:20;;;;;;;8.27;3.15;;;;;;;14.79;100.00;92357.81;5056926;28;20047;-81
2023/07/28 04:09:46;;;;;;;6.38;3.05;;;;;;;14.75;100.00;92356.91;5077313;28;20028;-82
2023/07/28 04:12:12;;;;;;;6.18;3.00;;;;;;;14.75;100.00;92360.31;5063964;28;20032;-82
2023/07/28 04:14:37;;;;;;;7.57;2.90;;;;;;;14.76;100.00;92361.84;5057183;28;20033;-82
2023/07/28 04:17:03;;;;;;;7.15;2.85;;;;;;;14.75;100.00;92365.59;5034759;28;20059;-82
2023/07/28 04:19:29;;;;;;;12.05;3.35;;;;;;;14.75;100.00;92365.59;5056732;28;20028;-82
2023/07/28 04:21:56;;;;;;;7.25;3.28;;;;;;;14.75;100.00;92354.28;5053002;28;20055;-82
2023/07/28 04:24:25;;;;;;;6.43;3.03;;;;;;;14.77;100.00;92355.50;5047298;28;20032;-82
2023/07/28 04:26:50;;;;;;;7.47;2.85;;;;;;;14.75;100.00;92359.53;5058570;28;20038;-81
2023/07/28 04:29:17;;;;;;;7.15;2.72;;;;;;;14.73;100.00;92357.22;5059334;28;20036;-82
2023/07/28 04:31:43;;;;;;;8.55;3.40;;;;;;;14.71;100.00;92358.63;5055793;28;20097;-82
2023/07/28 04:34:12;;;;;;;6.22;3.08;;;;;;;14.71;100.00;92380.47;5059529;28;20040;-82
2023/07/28 04:37:03;;;;;;;7.65;3.10;;;;;;;14.73;100.00;92382.78;5056441;28;20160;-82
2023/07/28 04:39:39;;;;;;;6.07;2.70;;;;;;;14.77;100.00;92388.97;5039506;28;20644;-82
2023/07/28 04:42:05;;;;;;;5.43;2.80;;;;;;;14.84;100.00;92383.22;5055396;28;20029;-82
2023/07/28 04:44:31;;;;;;;5.60;2.80;;;;;;;14.87;100.00;92393.13;5046222;28;20147;-82
2023/07/28 04:47:00;;;;;;;6.22;3.20;;;;;;;14.91;100.00;92392.19;5053179;28;20052;-82
2023/07/28 04:49:26;;;;;;;5.45;3.08;;;;;;;14.95;100.00;92387.06;5052200;28;20078;-82
2023/07/28 04:52:08;;;;;;;5.70;2.83;;;;;;;15.04;100.00;92393.09;5078180;28;20071;-82
2023/07/28 04:55:12;;;;;;;5.63;2.88;;;;;;;15.08;100.00;92396.63;4965759;28;20042;-83
2023/07/28 04:57:37;;;;;;;5.47;2.70;;;;;;;15.14;100.00;92392.75;4959438;28;20039;-82
2023/07/28 05:00:04;;;;;;;7.68;3.20;;;;;;;15.14;100.00;92398.00;4985739;28;20048;-82
2023/07/28 05:02:30;;;;;;;6.95;3.22;;;;;;;15.19;100.00;92405.72;5022195;28;20135;-82
2023/07/28 05:04:56;;;;;;;14.30;3.25;;;;;;;15.23;100.00;92403.25;5065511;28;20093;-82
2023/07/28 05:07:22;;;;;;;8.13;3.10;;;;;;;15.29;100.00;92409.09;5038410;28;20044;-82
2023/07/28 05:09:47;;;;;;;5.93;3.05;;;;;;;15.34;100.00;92411.59;5052650;28;20041;-83
2023/07/28 05:12:13;;;;;;;5.68;2.67;;;;;;;15.41;100.00;92409.22;5043137;28;20048;-82
2023/07/28 05:14:43;;;;;;;6.43;2.80;;;;;;;15.47;100.00;92415.09;5055438;28;20044;-83
2023/07/28 05:17:09;;;;;;;10.13;3.03;;;;;;;15.54;100.00;92408.25;5043919;28;20036;-84
2023/07/28 05:19:41;;;;;;;6.63;3.22;;;;;;;15.60;100.00;92409.63;5047254;28;20047;-81
2023/07/28 05:22:42;;;;;;;8.00;2.70;;;;;;;15.75;100.00;92412.81;4997805;28;20514;-80
2023/07/28 05:25:08;;;;;;;7.85;3.17;;;;;;;15.79;100.00;92411.84;5047609;28;20098;-81
2023/07/28 05:27:37;;;;;;;7.30;2.85;;;;;;;15.90;100.00;92412.25;5052808;28;20033;-81
2023/07/28 05:30:03;;;;;;;6.72;2.85;;;;;;;15.96;100.00;92415.47;5060240;28;20356;-81
2023/07/28 05:32:29;;;;;;;7.32;2.80;;;;;;;16.03;100.00;92421.81;5035986;28;20028;-81
2023/07/28 05:35:15;;;;;;;5.50;2.75;;;;;;;16.11;100.00;92414.13;5049688;28;20056;-84
2023/07/28 05:37:40;;;;;;;8.32;2.80;;;;;;;16.18;100.00;92423.09;5062906;28;20128;-81
2023/07/28 05:40:07;;;;;;;5.70;3.00;;;;;;;16.27;100.00;92420.38;5076793;28;20029;-81
2023/07/28 05:42:34;;;;;;;7.97;2.97;;;;;;;16.36;100.00;92418.44;5045944;28;20067;-81
2023/07/28 05:44:59;;;;;;;8.18;3.13;;;;;;;16.45;100.00;92427.06;5056402;28;20402;-81
2023/07/28 05:47:25;;;;;;;6.53;2.80;;;;;;;16.53;100.00;92422.06;5059651;28;20025;-82
2023/07/28 05:49:55;;;;;;;6.15;2.90;;;;;;;16.60;100.00;92425.72;5061329;28;20504;-82
2023/07/28 05:52:22;;;;;;;6.28;2.85;;;;;;;16.70;100.00;92427.19;5080623;28;20123;-82
2023/07/28 05:54:48;;;;;;;8.55;3.30;;;;;;;16.83;100.00;92426.16;5080617;28;20505;-82
2023/07/28 05:57:13;;;;;;;13.07;3.15;;;;;;;16.96;100.00;92440.19;5062790;28;20044;-81
2023/07/28 05:59:39;;;;;;;6.85;2.80;;;;;;;17.06;100.00;92439.00;5079986;28;20060;-81
2023/07/28 06:02:05;;;;;;;7.28;3.22;;;;;;;17.11;100.00;92436.13;5068444;28;20032;-82
2023/07/28 06:04:45;;;;;;;10.30;4.22;;;;;;;17.72;100.00;92437.31;5069218;28;20140;-81
2023/07/28 06:07:10;;;;;;;7.40;3.17;;;;;;;18.55;100.00;92433.34;5082438;28;20040;-81
2023/07/28 06:09:37;;;;;;;5.80;3.00;;;;;;;19.26;100.00;92431.84;5065827;28;20468;-83
2023/07/28 06:12:03;;;;;;;5.40;2.90;;;;;;;20.01;100.00;92435.53;5057138;28;20068;-82
2023/07/28 06:14:29;;;;;;;7.47;2.80;;;;;;;20.69;99.84;92438.88;5093973;28;20038;-82
2023/07/28 06:16:56;;;;;;;8.88;2.83;;;;;;;21.05;94.11;92436.88;5079060;28;20039;-83
2023/07/28 06:19:23;;;;;;;7.55;3.25;;;;;;;21.31;90.30;92444.22;5078984;28;20067;-84
2023/07/28 06:21:51;;;;;;;11.00;3.50;;;;;;;21.59;84.74;92443.94;5062004;28;20037;-83
2023/07/28 06:24:17;;;;;;;8.40;2.90;;;;;;;21.95;82.66;92452.50;5064590;28;20084;-83
2023/07/28 06:26:43;;;;;;;6.72;3.08;;;;;;;22.27;81.88;92453.03;5065572;28;20044;-83
2023/07/28 06:29:08;;;;;;;6.75;3.08;;;;;;;22.03;79.30;92454.16;5067912;28;20043;-83
2023/07/28 06:31:34;;;;;;;8.88;2.75;;;;;;;22.02;80.36;92453.41;5056695;28;20041;-82
2023/07/28 06:34:00;;;;;;;5.95;3.00;;;;;;;22.22;81.20;92456.75;5048296;28;20031;-83
2023/07/28 06:36:25;;;;;;;13.93;3.17;;;;;;;22.44;81.09;92457.03;5087251;28;20036;-83
2023/07/28 06:38:52;;;;;;;8.00;3.25;;;;;;;22.86;79.65;92454.16;5073549;28;20341;-85
2023/07/28 06:41:18;;;;;;;5.70;2.80;;;;;;;23.37;77.61;92452.84;5087708;28;20031;-82
2023/07/28 06:43:45;;;;;;;5.85;3.00;;;;;;;23.12;77.49;92462.47;5078766;28;20084;-84
2023/07/28 06:46:12;;;;;;;7.68;2.78;;;;;;;22.86;77.78;92461.41;5067171;28;20117;-87
2023/07/28 06:48:39;;;;;;;6.43;3.20;;;;;;;21.78;86.13;92457.22;5071544;28;20070;-85
2023/07/28 06:51:06;;;;;;;7.68;2.80;;;;;;;21.51;86.89;92450.28;5053092;28;20036;-79
2023/07/28 06:53:32;;;;;;;6.00;3.15;;;;;;;21.16;88.53;92446.59;5092551;28;20063;-85
2023/07/28 06:55:58;;;;;;;7.30;3.42;;;;;;;20.85;92.97;92452.09;5063740;28;20096;-83
2023/07/28 06:58:24;;;;;;;10.63;3.22;;;;;;;20.66;94.73;92458.94;5055706;28;20041;-83
2023/07/28 07:00:49;;;;;;;9.50;3.30;;;;;;;20.53;94.06;92454.84;5086317;28;20032;-83
2023/07/28 07:03:17;;;;;;;9.30;3.35;;;;;;;20.20;98.09;92449.97;5051559;28;20062;-84
2023/07/28 07:05:46;;;;;;;9.57;2.97;;;;;;;20.57;93.75;92453.84;5040542;28;20040;-82
2023/07/28 07:08:13;;;;;;;6.35;2.90;;;;;;;20.58;97.63;92447.41;5083052;28;20107;-85
2023/07/28 07:10:39;;;;;;;7.85;3.40;;;;;;;20.58;94.39;92465.25;5087862;28;20052;-86
2023/07/28 07:13:04;;;;;;;8.90;3.15;;;;;;;20.55;96.31;92465.91;5086717;28;20033;-85
2023/07/28 07:15:30;;;;;;;9.23;3.10;;;;;;;20.63;98.59;92458.91;5087234;28;20501;-85
2023/07/28 07:17:56;;;;;;;7.35;3.30;;;;;;;20.50;96.16;92461.63;5087398;28;20030;-85
2023/07/28 07:20:22;;;;;;;8.73;3.83;;;;;;;20.48;95.37;92449.81;5075303;28;20559;-85
2023/07/28 07:22:48;;;;;;;8.05;2.88;;;;;;;20.51;93.69;92454.44;5068007;28;20040;-85
2023/07/28 07:25:13;;;;;;;8.00;3.50;;;;;;;20.43;100.00;92456.19;5049894;28;20028;-86
2023/07/28 07:27:39;;;;;;;7.85;3.28;;;;;;;20.00;99.02;92457.91;5061808;28;20035;-83
2023/07/28 07:30:05;;;;;;;12.45;3.28;;;;;;;20.17;100.00;92464.72;5066031;28;20041;-84
2023/07/28 07:32:32;;;;;;;6.78;2.85;;;;;;;20.10;98.65;92462.66;5055781;28;20024;-83
2023/07/28 07:34:58;;;;;;;7.97;3.42;;;;;;;20.26;97.07;92465.28;5062279;28;20045;-84
2023/07/28 07:37:23;;;;;;;8.23;3.33;;;;;;;20.53;96.79;92452.97;5062814;28;20033;-84
2023/07/28 07:39:50;;;;;;;10.70;3.38;;;;;;;20.69;90.03;92460.13;5082471;28;20032;-83
2023/07/28 07:42:15;;;;;;;13.13;3.08;;;;;;;20.81;92.00;92453.94;5076600;28;20068;-82
2023/07/28 07:44:41;;;;;;;8.55;3.25;;;;;;;20.99;91.67;92460.38;5088209;28;20075;-84
2023/07/28 07:47:14;;;;;;;7.07;3.40;;;;;;;20.97;88.96;92463.38;5038309;28;20123;-82
2023/07/28 07:49:40;;;;;;;4.70;2.70;;;;;;;21.06;89.12;92462.41;5072452;28;20032;-82
2023/07/28 07:52:09;;;;;;;8.45;3.15;;;;;;;20.85;91.27;92468.84;5035452;28;20036;-85
2023/07/28 07:54:34;;;;;;;10.88;3.25;;;;;;;20.85;93.05;92458.22;5048908;28;20042;-81
2023/07/28 07:57:00;;;;;;;6.43;3.13;;;;;;;20.90;82.37;92471.22;5065579;28;20028;-83
2023/07/28 07:59:28;;;;;;;7.88;3.00;;;;;;;21.09;85.32;92470.44;5089146;28;20333;-82
2023/07/28 08:01:54;;;;;;;7.85;2.90;;;;;;;21.13;85.29;92468.59;5088074;28;20032;-83
2023/07/28 08:04:19;;;;;;;5.68;2.80;;;;;;;21.34;79.94;92467.44;5071988;28;20501;-83
2023/07/28 08:06:45;;;;;;;5.95;3.17;;;;;;;21.24;72.99;92473.38;5087099;28;20425;-84
2023/07/28 08:09:10;;;;;;;7.28;3.08;;;;;;;21.32;81.50;92475.03;5064079;28;20104;-82
2023/07/28 08:11:36;;;;;;;8.02;3.45;;;;;;;21.15;78.47;92465.59;5068321;28;20411;-83
2023/07/28 08:14:02;;;;;;;8.88;2.95;;;;;;;21.03;81.31;92479.03;5068609;28;20048;-82
2023/07/28 08:16:27;;;;;;;8.65;3.00;;;;;;;20.90;85.75;92478.44;5069474;28;20080;-83
2023/07/28 08:18:53;;;;;;;6.00;2.90;;;;;;;21.05;81.19;92472.25;5093713;28;20028;-83
2023/07/28 08:21:19;;;;;;;9.90;3.50;;;;;;;21.39;78.18;92473.28;5086334;28;20107;-83
2023/07/28 08:23:44;;;;;;;7.53;3.30;;;;;;;21.61;75.77;92471.00;5088640;28;20040;-82
2023/07/28 08:26:10;;;;;;;7.15;2.83;;;;;;;21.43;72.92;92473.34;5085744;28;20385;-83
2023/07/28 08:28:35;;;;;;;7.07;3.13;;;;;;;21.38;72.74;92478.94;5086964;28;20059;-83
2023/07/28 08:31:01;;;;;;;9.38;3.25;;;;;;;21.79;70.74;92481.94;5084044;28;20052;-83
2023/07/28 08:33:27;;;;;;;7.40;3.40;;;;;;;21.77;74.73;92484.97;5083269;28;20056;-82
2023/07/28 08:35:52;;;;;;;9.10;3.08;;;;;;;21.67;73.77;92484.81;5087711;28;20489;-82
2023/07/28 08:38:18;;;;;;;8.38;3.72;;;;;;;21.31;77.21;92481.47;5062479;28;20486;-83
2023/07/28 08:40:44;;;;;;;8.25;3.03;;;;;;;21.41;78.68;92489.69;5070400;28;20065;-84
2023/07/28 08:43:10;;;;;;;7.10;3.05;;;;;;;21.37;75.80;92488.81;5088191;28;20033;-83
2023/07/28 08:45:36;;;;;;;8.10;3.15;;;;;;;21.61;77.55;92486.97;5089990;28;20048;-83
2023/07/28 08:48:02;;;;;;;5.88;3.00;;;;;;;21.88;77.20;92487.03;5063547;28;20044;-83
2023/07/28 08:50:27;;;;;;;6.45;3.00;;;;;;;21.78;78.89;92486.50;5086166;28;20058;-83
2023/07/28 08:52:54;;;;;;;8.25;3.22;;;;;;;21.72;75.44;92497.81;5087598;28;20401;-83
2023/07/28 08:55:19;;;;;;;8.02;3.15;;;;;;;21.73;78.02;92489.47;5067281;28;20494;-82
2023/07/28 08:57:45;;;;;;;9.38;3.28;;;;;;;21.76;77.93;92480.00;5078539;28;20043;-80
2023/07/28 09:00:13;;;;;;;7.28;3.30;;;;;;;21.68;78.43;92479.09;5091609;28;20036;-82
2023/07/28 09:02:41;;;;;;;6.90;3.60;;;;;;;21.53;79.92;92480.00;5069575;28;20036;-82
2023/07/28 09:05:07;;;;;;;9.68;4.00;;;;;;;21.46;77.72;92475.31;5072690;28;20066;-84
2023/07/28 09:07:36;;;;;;;6.47;3.13;;;;;;;21.65;80.28;92482.47;5083407;28;20063;-82
2023/07/28 09:10:02;;;;;;;11.13;3.75;;;;;;;21.72;77.39;92493.25;5082991;28;20028;-83
2023/07/28 09:12:31;;;;;;;10.57;3.65;;;;;;;21.81;77.79;92491.13;5050466;28;20036;-82
2023/07/28 09:14:57;;;;;;;8.98;3.53;;;;;;;21.90;76.34;92480.22;5099755;28;20038;-83
2023/07/28 09:17:23;;;;;;;9.68;3.33;;;;;;;21.88;76.21;92487.81;5099978;28;20461;-81
2023/07/28 09:19:56;;;;;;;6.82;3.28;;;;;;;22.00;78.31;92484.97;5094245;28;20102;-83
2023/07/28 09:22:22;;;;;;;10.45;4.30;;;;;;;21.73;79.18;92478.81;5081268;28;20036;-84
2023/07/28 09:24:49;;;;;;;7.85;3.17;;;;;;;21.79;76.12;92482.72;5092047;28;20039;-84
2023/07/28 09:27:25;;;;;;;11.38;3.20;;;;;;;21.88;78.18;92487.03;5087997;28;20036;-82
2023/07/28 09:29:54;;;;;;;5.50;2.97;;;;;;;21.99;74.94;92490.63;5082662;28;20035;-83
2023/07/28 09:32:29;;;;;;;7.90;3.60;;;;;;;21.82;76.91;92483.91;5096143;28;20123;-80
2023/07/28 09:35:15;;;;;;;8.73;3.25;;;;;;;22.21;77.43;92486.41;5096702;28;20040;-80
2023/07/28 09:37:42;;;;;;;7.93;3.47;;;;;;;22.43;74.57;92492.84;5092082;28;20043;-80
2023/07/28 09:40:13;;;;;;;8.35;3.13;;;;;;;22.47;76.61;92488.31;5087120;28;20051;-79
2023/07/28 09:42:44;;;;;;;7.32;3.60;;;;;;;22.37;74.84;92488.97;5078976;28;20074;-79
2023/07/28 09:45:12;;;;;;;6.80;3.07;;;;;;;22.40;71.78;92491.69;5096118;28;20127;-81
2023/07/28 09:47:38;;;;;;;8.45;3.20;;;;;;;22.41;75.00;92489.78;5096771;28;20032;-80
2023/07/28 09:50:05;;;;;;;6.40;3.00;;;;;;;22.53;75.10;92486.13;5089131;28;20123;-79
2023/07/28 09:52:40;;;;;;;9.50;3.65;;;;;;;22.53;73.63;92481.56;5095731;28;20054;-80
2023/07/28 09:55:11;;;;;;;7.90;3.03;;;;;;;22.23;69.87;92492.94;5095650;28;20478;-80
2023/07/28 09:57:51;;;;;;;7.28;3.17;;;;;;;22.37;74.60;92491.63;5075136;28;20035;-79
2023/07/28 10:00:18;;;;;;;6.03;3.10;;;;;;;22.49;75.88;92488.72;5075608;28;20490;-80
2023/07/28 10:02:44;;;;;;;7.72;3.42;;;;;;;22.20;72.00;92484.84;5057312;28;20032;-79
2023/07/28 10:05:10;;;;;;;6.75;3.20;;;;;;;22.30;71.98;92496.84;5076494;28;20044;-80
2023/07/28 10:07:40;;;;;;;6.15;3.00;;;;;;;22.34;76.08;92489.69;5076184;28;20060;-79
2023/07/28 10:10:09;;;;;;;11.43;3.38;;;;;;;22.57;71.86;92485.03;5076218;28;20048;-79
2023/07/28 10:12:50;;;;;;;9.38;3.20;;;;;;;22.65;70.88;92484.03;5076075;28;20107;-78
2023/07/28 10:15:20;;;;;;;5.85;3.15;;;;;;;22.74;68.30;92480.28;5080893;28;20065;-80
2023/07/28 10:17:57;;;;;;;8.00;3.50;;;;;;;22.53;69.95;92478.13;5077101;28;20025;-81
2023/07/28 10:20:34;;;;;;;7.30;3.10;;;;;;;22.66;69.36;92469.53;5078800;28;20499;-81
2023/07/28 10:23:05;;;;;;;6.53;3.17;;;;;;;22.76;69.23;92478.03;5078940;28;20033;-79
2023/07/28 10:25:35;;;;;;;8.80;3.10;;;;;;;22.69;69.65;92472.63;5094479;28;20166;-80
2023/07/28 10:28:02;;;;;;;5.57;3.00;;;;;;;23.09;71.98;92479.22;5076185;28;20398;-80
2023/07/28 10:30:28;;;;;;;6.03;3.38;;;;;;;23.53;69.08;92475.84;5077790;28;20556;-79
2023/07/28 10:32:55;;;;;;;7.50;3.42;;;;;;;23.47;65.25;92484.22;5076159;28;20036;-81
2023/07/28 10:35:26;;;;;;;5.28;3.03;;;;;;;23.32;69.09;92481.75;5077101;28;20047;-81
2023/07/28 10:37:55;;;;;;;5.13;3.20;;;;;;;23.38;68.63;92481.06;5080826;28;20020;-80
2023/07/28 10:40:34;;;;;;;7.25;3.20;;;;;;;23.65;68.65;92484.38;5080367;28;20040;-80
2023/07/28 10:43:01;;;;;;;5.85;3.10;;;;;;;23.74;66.02;92484.09;5086474;28;20051;-80
2023/07/28 10:45:30;;;;;;;9.30;3.47;;;;;;;24.13;67.96;92498.94;5079751;28;20058;-79
2023/07/28 10:47:59;;;;;;;6.78;2.95;;;;;;;23.95;64.46;92491.53;5083308;28;20482;-81
2023/07/28 10:50:28;;;;;;;8.73;3.33;;;;;;;24.39;64.17;92484.63;5082874;28;20608;-80
2023/07/28 10:52:53;;;;;;;6.80;3.25;;;;;;;24.21;64.18;92489.84;5078780;28;20356;-80
2023/07/28 10:55:21;;;;;;;6.93;3.17;;;;;;;24.22;62.55;92484.09;5078096;28;20026;-80
2023/07/28 10:57:49;;;;;;;6.93;3.35;;;;;;;23.73;63.40;92484.44;5088649;28;20032;-80
2023/07/28 11:00:18;;;;;;;6.88;3.00;;;;;;;23.77;62.38;92488.72;5083787;28;20087;-80
2023/07/28 11:02:46;;;;;;;7.47;2.90;;;;;;;23.75;66.63;92482.97;5061539;28;20039;-80
2023/07/28 11:05:23;;;;;;;5.95;2.97;;;;;;;23.57;64.26;92490.03;5083327;28;20088;-80
2023/07/28 11:07:50;;;;;;;7.72;3.58;;;;;;;23.51;67.35;92489.59;5093145;28;20389;-81
2023/07/28 11:10:16;;;;;;;6.18;3.50;;;;;;;23.16;66.58;92495.31;5092832;28;20067;-80
2023/07/28 11:12:50;;;;;;;6.28;3.40;;;;;;;23.51;72.76;92491.47;5095586;28;20040;-80
2023/07/28 11:15:17;;;;;;;6.07;2.75;;;;;;;23.46;74.37;92490.72;5087173;28;20410;-79
2023/07/28 11:17:48;;;;;;;4.88;2.85;;;;;;;23.49;71.97;92492.63;5076862;28;20277;-80
2023/07/28 11:20:21;;;;;;;7.38;3.05;;;;;;;23.03;70.73;92476.09;5070017;28;20211;-80
2023/07/28 11:22:54;;;;;;;9.75;3.60;;;;;;;22.68;74.66;92484.44;5087727;28;20524;-81
2023/07/28 11:25:21;;;;;;;7.60;3.38;;;;;;;22.78;75.23;92475.78;5082280;28;20028;-81
2023/07/28 11:27:47;;;;;;;11.77;3.33;;;;;;;23.01;76.77;92476.47;5085755;28;20103;-79
2023/07/28 11:30:14;;;;;;;8.40;3.58;;;;;;;23.34;72.64;92469.56;5092678;28;20430;-81